Impacts TAF Board
For situational awareness. Not to be used for flight planning purposes.
IDs:

KTUL - Tulsa Intl Arpt, OK, US

Issued at 2321 UTC 02 Jul 2022
Updated at 0513 UTC 03 Jul 2022
Potential Impact None Slight Moderate High
Time<<03/18Z 03/19Z 03/20Z 03/21Z 03/22Z 03/23Z 04/00Z 04/01Z 04/02Z 04/03Z 04/04Z 04/05Z 04/06Z>>
Type PRVL PRVL PRVL PRVL PRVL PRVL
VIS >6 >6 >6 >6 >6 >6
CIG 250 250 250 250 250 250
Cover BKN BKN BKN BKN BKN BKN
FltCat VFR VFR VFR VFR VFR VFR
WX -- -- -- -- -- --
WDir 160 160 160 160 160 160
WSpd 7 7 7 7 7 7
WGst -- -- -- -- -- --
WSHgt -- -- -- -- -- --
WSDir -- -- -- -- -- --
WSSpd -- -- -- -- -- --
R08/26
XWnd -7 -7 -7 -7 -7 -7 0 0 0 0 0 0 0
HWnd 2 2 2 2 2 2 0 0 0 0 0 0 0
R18/36
XWnd 3 3 3 3 3 3 0 0 0 0 0 0 0
HWnd 6 6 6 6 6 6 0 0 0 0 0 0 0
Raw TAF
KTUL 022321Z 0300/0324 16007KT P6SM SCT050 BKN250

METAR Board
Radar Display
Forecast Discussion
For situational awareness. Not to be used for flight planning purposes.